Terminal Aerodrome Forecast
Issued by NWS Anchorage, AK

Home | Current Version | Previous Version | Text Only | Print | Product List | Glossary On
Versions: 1 2 3 4 5 6 7 8 9 10 11 12 13 14 15 16 17
000
FTAK31 PANC 210524
TAFANC
TAF
PANC 210524Z 2106/2212 17011KT P6SM -SHRA SCT035 OVC050
     FM211400 16010KT P6SM VCSH BKN060
     FM220000 15015G23KT P6SM SCT040 BKN070
     FM220600 15008KT P6SM SCT050 BKN080=

USA.gov is the U.S. government's official web portal to all federal, state and local government web resources and services.